Terminal Aerodrome Forecast
Issued by NWS Grand Rapids, MI

Home | Current Version | Previous Version | Text Only | Print | Product List | Glossary On
Versions: 1 2 3 4 5 6 7 8 9 10 11 12 13 14 15 16 17 18 19 20 21 22 23 24 25 26 27 28 29 30 31
958
FTUS43 KGRR 271738
TAFGRR
TAF
KGRR 271738Z 2718/2818 27007KT P6SM OVC009
     FM271900 25006KT P6SM BKN012
     FM280000 31004KT P6SM OVC015
     FM280900 04007KT P6SM BKN008
     FM281500 05009KT P6SM BKN020=

USA.gov is the U.S. government's official web portal to all federal, state and local government web resources and services.